sensor_id;sensor_type;location;lat;lon;timestamp;pressure;altitude;pressure_sealevel;temperature;humidity
62548;BME280;48602;45.192;5.722;2023-04-05T00:02:25;99403.63;;;7.17;47.82
62548;BME280;48602;45.192;5.722;2023-04-05T00:04:53;99401.13;;;7.11;47.63
62548;BME280;48602;45.192;5.722;2023-04-05T00:07:22;99410.78;;;7.08;49.51
62548;BME280;48602;45.192;5.722;2023-04-05T00:09:48;99399.59;;;7.01;47.34
62548;BME280;48602;45.192;5.722;2023-04-05T00:12:14;99400.53;;;6.98;48.44
62548;BME280;48602;45.192;5.722;2023-04-05T00:14:40;99407.50;;;6.99;48.59
62548;BME280;48602;45.192;5.722;2023-04-05T00:17:06;99409.25;;;6.99;48.65
62548;BME280;48602;45.192;5.722;2023-04-05T00:19:31;99405.91;;;6.91;50.30
62548;BME280;48602;45.192;5.722;2023-04-05T00:21:58;99407.03;;;6.79;49.54
62548;BME280;48602;45.192;5.722;2023-04-05T00:24:25;99405.38;;;6.74;49.02
62548;BME280;48602;45.192;5.722;2023-04-05T00:26:53;99404.56;;;6.72;49.32
62548;BME280;48602;45.192;5.722;2023-04-05T00:29:19;99404.63;;;6.70;50.24
62548;BME280;48602;45.192;5.722;2023-04-05T00:31:44;99414.34;;;6.63;49.89
62548;BME280;48602;45.192;5.722;2023-04-05T00:34:09;99398.72;;;6.57;48.69
62548;BME280;48602;45.192;5.722;2023-04-05T00:36:36;99412.69;;;6.58;49.64
62548;BME280;48602;45.192;5.722;2023-04-05T00:39:02;99409.31;;;6.53;50.38
62548;BME280;48602;45.192;5.722;2023-04-05T00:41:27;99407.63;;;6.50;50.21
62548;BME280;48602;45.192;5.722;2023-04-05T00:43:52;99405.06;;;6.47;50.59
62548;BME280;48602;45.192;5.722;2023-04-05T00:46:18;99408.59;;;6.45;50.40
62548;BME280;48602;45.192;5.722;2023-04-05T00:48:43;99406.03;;;6.42;51.42
62548;BME280;48602;45.192;5.722;2023-04-05T00:51:10;99407.81;;;6.40;51.81
62548;BME280;48602;45.192;5.722;2023-04-05T00:53:36;99407.03;;;6.36;51.20
62548;BME280;48602;45.192;5.722;2023-04-05T00:56:02;99404.44;;;6.33;50.45
62548;BME280;48602;45.192;5.722;2023-04-05T00:58:28;99394.94;;;6.27;50.09
62548;BME280;48602;45.192;5.722;2023-04-05T01:01:06;99401.06;;;6.26;50.38
62548;BME280;48602;45.192;5.722;2023-04-05T01:03:40;99393.25;;;6.25;50.46
62548;BME280;48602;45.192;5.722;2023-04-05T01:06:23;99395.94;;;6.20;50.56
62548;BME280;48602;45.192;5.722;2023-04-05T01:09:16;99398.72;;;6.11;51.52
62548;BME280;48602;45.192;5.722;2023-04-05T01:11:43;99399.72;;;6.04;51.22
62548;BME280;48602;45.192;5.722;2023-04-05T01:14:09;99400.72;;;5.99;51.03
62548;BME280;48602;45.192;5.722;2023-04-05T01:16:35;99391.16;;;5.96;51.68
62548;BME280;48602;45.192;5.722;2023-04-05T01:19:00;99393.81;;;5.93;51.47
62548;BME280;48602;45.192;5.722;2023-04-05T01:37:44;99380.13;;;5.76;51.39
62548;BME280;48602;45.192;5.722;2023-04-05T01:40:13;99386.22;;;5.76;51.00
62548;BME280;48602;45.192;5.722;2023-04-05T01:42:39;99383.63;;;5.73;52.55
62548;BME280;48602;45.192;5.722;2023-04-05T01:45:05;99389.78;;;5.71;53.45
62548;BME280;48602;45.192;5.722;2023-04-05T01:47:30;99391.66;;;5.64;53.22
62548;BME280;48602;45.192;5.722;2023-04-05T01:49:56;99391.69;;;5.61;52.97
62548;BME280;48602;45.192;5.722;2023-04-05T01:52:21;99400.50;;;5.55;51.87
62548;BME280;48602;45.192;5.722;2023-04-05T01:54:46;99395.41;;;5.48;52.57
62548;BME280;48602;45.192;5.722;2023-04-05T01:57:12;99396.34;;;5.42;52.41
62548;BME280;48602;45.192;5.722;2023-04-05T01:59:37;99392.03;;;5.38;52.30
62548;BME280;48602;45.192;5.722;2023-04-05T02:02:03;99405.19;;;5.35;53.36
62548;BME280;48602;45.192;5.722;2023-04-05T02:04:28;99397.41;;;5.31;53.30
62548;BME280;48602;45.192;5.722;2023-04-05T02:06:53;99405.25;;;5.29;53.48
62548;BME280;48602;45.192;5.722;2023-04-05T02:09:19;99403.53;;;5.28;53.65
62548;BME280;48602;45.192;5.722;2023-04-05T02:11:44;99399.19;;;5.25;53.23
62548;BME280;48602;45.192;5.722;2023-04-05T02:14:10;99400.97;;;5.23;52.97
62548;BME280;48602;45.192;5.722;2023-04-05T02:16:36;99397.47;;;5.24;53.55
62548;BME280;48602;45.192;5.722;2023-04-05T02:19:01;99398.34;;;5.25;54.20
62548;BME280;48602;45.192;5.722;2023-04-05T02:21:27;99403.53;;;5.26;54.39
62548;BME280;48602;45.192;5.722;2023-04-05T02:23:52;99401.84;;;5.24;54.35
62548;BME280;48602;45.192;5.722;2023-04-05T02:26:18;99399.22;;;5.24;54.45
62548;BME280;48602;45.192;5.722;2023-04-05T02:28:44;99402.72;;;5.23;54.47
62548;BME280;48602;45.192;5.722;2023-04-05T02:31:13;99402.72;;;5.21;54.48
62548;BME280;48602;45.192;5.722;2023-04-05T02:33:39;99407.09;;;5.22;54.26
62548;BME280;48602;45.192;5.722;2023-04-05T02:36:06;99408.84;;;5.20;54.70
62548;BME280;48602;45.192;5.722;2023-04-05T02:38:32;99411.50;;;5.19;54.59
62548;BME280;48602;45.192;5.722;2023-04-05T02:41:00;99412.41;;;5.18;54.60
62548;BME280;48602;45.192;5.722;2023-04-05T02:43:25;99414.06;;;5.20;54.78
62548;BME280;48602;45.192;5.722;2023-04-05T02:45:51;99413.22;;;5.20;54.83
62548;BME280;48602;45.192;5.722;2023-04-05T02:48:17;99414.13;;;5.19;54.74
62548;BME280;48602;45.192;5.722;2023-04-05T02:50:47;99408.06;;;5.17;55.48
62548;BME280;48602;45.192;5.722;2023-04-05T02:53:13;99408.94;;;5.14;55.61
62548;BME280;48602;45.192;5.722;2023-04-05T02:55:39;99414.25;;;5.08;55.90
62548;BME280;48602;45.192;5.722;2023-04-05T02:58:06;99413.41;;;5.05;56.13
62548;BME280;48602;45.192;5.722;2023-04-05T03:00:32;99409.16;;;5.01;55.88
62548;BME280;48602;45.192;5.722;2023-04-05T03:02:58;99411.78;;;4.99;55.66
62548;BME280;48602;45.192;5.722;2023-04-05T03:05:23;99409.19;;;4.98;56.09
62548;BME280;48602;45.192;5.722;2023-04-05T03:07:49;99413.53;;;4.97;56.24
62548;BME280;48602;45.192;5.722;2023-04-05T03:10:16;99417.91;;;4.97;56.44
62548;BME280;48602;45.192;5.722;2023-04-05T03:12:46;99410.94;;;4.96;56.17
62548;BME280;48602;45.192;5.722;2023-04-05T03:15:12;99419.66;;;4.95;55.95
62548;BME280;48602;45.192;5.722;2023-04-05T03:17:37;99422.28;;;4.93;55.90
62548;BME280;48602;45.192;5.722;2023-04-05T03:20:03;99428.41;;;4.92;56.83
62548;BME280;48602;45.192;5.722;2023-04-05T03:22:31;99429.25;;;4.93;57.26
62548;BME280;48602;45.192;5.722;2023-04-05T03:24:57;99434.53;;;4.88;57.27
62548;BME280;48602;45.192;5.722;2023-04-05T03:27:23;99432.88;;;4.82;57.25
62548;BME280;48602;45.192;5.722;2023-04-05T03:29:48;99440.78;;;4.76;56.53
62548;BME280;48602;45.192;5.722;2023-04-05T03:32:13;99439.97;;;4.71;56.03
62548;BME280;48602;45.192;5.722;2023-04-05T03:34:39;99444.41;;;4.65;56.38
62548;BME280;48602;45.192;5.722;2023-04-05T03:37:05;99441.88;;;4.57;57.55
62548;BME280;48602;45.192;5.722;2023-04-05T03:39:30;99440.16;;;4.53;56.76
62548;BME280;48602;45.192;5.722;2023-04-05T03:41:55;99444.56;;;4.49;56.93
62548;BME280;48602;45.192;5.722;2023-04-05T03:44:21;99446.34;;;4.44;56.96
62548;BME280;48602;45.192;5.722;2023-04-05T03:46:46;99449.88;;;4.39;56.63
62548;BME280;48602;45.192;5.722;2023-04-05T03:49:12;99444.66;;;4.39;56.54
62548;BME280;48602;45.192;5.722;2023-04-05T03:51:37;99443.84;;;4.35;56.83
62548;BME280;48602;45.192;5.722;2023-04-05T03:54:02;99443.00;;;4.35;56.93
62548;BME280;48602;45.192;5.722;2023-04-05T03:56:28;99441.28;;;4.31;56.75
62548;BME280;48602;45.192;5.722;2023-04-05T03:58:53;99455.22;;;4.30;58.22
62548;BME280;48602;45.192;5.722;2023-04-05T04:01:19;99455.22;;;4.30;57.62
62548;BME280;48602;45.192;5.722;2023-04-05T04:03:45;99448.28;;;4.26;57.25
62548;BME280;48602;45.192;5.722;2023-04-05T04:06:10;99454.38;;;4.26;57.53
62548;BME280;48602;45.192;5.722;2023-04-05T04:08:36;99454.31;;;4.31;57.42
62548;BME280;48602;45.192;5.722;2023-04-05T04:11:02;99449.97;;;4.33;57.76
62548;BME280;48602;45.192;5.722;2023-04-05T04:13:27;99442.06;;;4.36;58.01
62548;BME280;48602;45.192;5.722;2023-04-05T04:15:53;99445.53;;;4.39;58.41
62548;BME280;48602;45.192;5.722;2023-04-05T04:18:18;99446.41;;;4.40;58.39
62548;BME280;48602;45.192;5.722;2023-04-05T04:20:44;99443.75;;;4.43;58.86
62548;BME280;48602;45.192;5.722;2023-04-05T04:23:09;99439.38;;;4.45;58.46
62548;BME280;48602;45.192;5.722;2023-04-05T04:25:35;99440.25;;;4.47;59.07
62548;BME280;48602;45.192;5.722;2023-04-05T04:28:02;99439.34;;;4.49;58.67
62548;BME280;48602;45.192;5.722;2023-04-05T04:30:28;99443.69;;;4.50;58.86
62548;BME280;48602;45.192;5.722;2023-04-05T04:32:53;99440.16;;;4.54;58.67
62548;BME280;48602;45.192;5.722;2023-04-05T04:35:27;99446.22;;;4.56;58.81
62548;BME280;48602;45.192;5.722;2023-04-05T04:37:59;99455.78;;;4.57;58.46
62548;BME280;48602;45.192;5.722;2023-04-05T04:43:12;99454.03;;;4.58;58.60
62548;BME280;48602;45.192;5.722;2023-04-05T04:45:42;99445.34;;;4.57;58.79
62548;BME280;48602;45.192;5.722;2023-04-05T04:48:11;99452.28;;;4.59;59.09
62548;BME280;48602;45.192;5.722;2023-04-05T04:50:38;99446.19;;;4.58;59.22
62548;BME280;48602;45.192;5.722;2023-04-05T04:53:03;99451.41;;;4.60;59.30
62548;BME280;48602;45.192;5.722;2023-04-05T04:55:29;99451.41;;;4.60;59.33
62548;BME280;48602;45.192;5.722;2023-04-05T04:57:55;99454.88;;;4.62;59.14
62548;BME280;48602;45.192;5.722;2023-04-05T05:00:22;99458.34;;;4.64;58.95
62548;BME280;48602;45.192;5.722;2023-04-05T05:02:48;99459.22;;;4.63;58.84
62548;BME280;48602;45.192;5.722;2023-04-05T05:05:14;99461.81;;;4.66;58.34
62548;BME280;48602;45.192;5.722;2023-04-05T05:07:40;99455.72;;;4.64;58.33
62548;BME280;48602;45.192;5.722;2023-04-05T05:10:09;99463.53;;;4.65;58.19
62548;BME280;48602;45.192;5.722;2023-04-05T05:12:36;99462.69;;;4.65;57.86
62548;BME280;48602;45.192;5.722;2023-04-05T05:15:02;99463.56;;;4.62;57.92
62548;BME280;48602;45.192;5.722;2023-04-05T05:17:28;99467.94;;;4.62;57.95
62548;BME280;48602;45.192;5.722;2023-04-05T05:19:53;99470.56;;;4.60;57.56
62548;BME280;48602;45.192;5.722;2023-04-05T05:22:19;99467.13;;;4.55;57.79
62548;BME280;48602;45.192;5.722;2023-04-05T05:24:44;99468.91;;;4.51;57.50
62548;BME280;48602;45.192;5.722;2023-04-05T05:27:10;99469.81;;;4.50;57.54
62548;BME280;48602;45.192;5.722;2023-04-05T05:29:36;99466.31;;;4.50;57.42
62548;BME280;48602;45.192;5.722;2023-04-05T05:32:01;99464.59;;;4.49;57.44
62548;BME280;48602;45.192;5.722;2023-04-05T05:34:27;99467.22;;;4.47;57.87
62548;BME280;48602;45.192;5.722;2023-04-05T05:36:54;99471.56;;;4.48;57.64
62548;BME280;48602;45.192;5.722;2023-04-05T05:39:19;99473.28;;;4.51;57.42
62548;BME280;48602;45.192;5.722;2023-04-05T05:41:45;99474.16;;;4.50;57.33
62548;BME280;48602;45.192;5.722;2023-04-05T05:44:11;99482.00;;;4.50;57.44
62548;BME280;48602;45.192;5.722;2023-04-05T05:46:36;99480.25;;;4.47;58.12
62548;BME280;48602;45.192;5.722;2023-04-05T05:49:02;99492.50;;;4.42;58.86
62548;BME280;48602;45.192;5.722;2023-04-05T05:51:27;99491.66;;;4.37;58.91
62548;BME280;48602;45.192;5.722;2023-04-05T05:53:52;99496.88;;;4.37;58.96
62548;BME280;48602;45.192;5.722;2023-04-05T05:56:18;99489.09;;;4.34;59.00
62548;BME280;48602;45.192;5.722;2023-04-05T05:58:43;99491.72;;;4.34;59.18
62548;BME280;48602;45.192;5.722;2023-04-05T06:01:10;99498.69;;;4.34;59.38
62548;BME280;48602;45.192;5.722;2023-04-05T06:03:36;99496.06;;;4.32;59.60
62548;BME280;48602;45.192;5.722;2023-04-05T06:06:02;99499.56;;;4.33;59.89
62548;BME280;48602;45.192;5.722;2023-04-05T06:08:30;99504.66;;;4.45;59.45
62548;BME280;48602;45.192;5.722;2023-04-05T06:10:56;99505.47;;;4.51;58.99
62548;BME280;48602;45.192;5.722;2023-04-05T06:13:21;99502.78;;;4.56;58.80
62548;BME280;48602;45.192;5.722;2023-04-05T06:15:47;99512.34;;;4.59;59.00
62548;BME280;48602;45.192;5.722;2023-04-05T06:18:13;99511.47;;;4.58;58.91
62548;BME280;48602;45.192;5.722;2023-04-05T06:20:38;99517.56;;;4.57;59.23
62548;BME280;48602;45.192;5.722;2023-04-05T06:23:05;99518.44;;;4.56;59.30
62548;BME280;48602;45.192;5.722;2023-04-05T06:25:31;99519.38;;;4.52;59.12
62548;BME280;48602;45.192;5.722;2023-04-05T06:27:57;99522.88;;;4.51;59.13
62548;BME280;48602;45.192;5.722;2023-04-05T06:30:22;99527.22;;;4.52;59.15
62548;BME280;48602;45.192;5.722;2023-04-05T06:32:47;99528.88;;;4.57;58.94
62548;BME280;48602;45.192;5.722;2023-04-05T06:35:21;99535.78;;;4.65;58.88
62548;BME280;48602;45.192;5.722;2023-04-05T06:37:47;99535.78;;;4.65;59.11
62548;BME280;48602;45.192;5.722;2023-04-05T06:40:13;99537.56;;;4.63;59.64
62548;BME280;48602;45.192;5.722;2023-04-05T06:42:39;99535.84;;;4.59;59.37
62548;BME280;48602;45.192;5.722;2023-04-05T06:45:05;99538.47;;;4.57;59.43
62548;BME280;48602;45.192;5.722;2023-04-05T06:47:34;99535.84;;;4.59;59.09
62548;BME280;48602;45.192;5.722;2023-04-05T06:50:00;99540.16;;;4.63;58.94
62548;BME280;48602;45.192;5.722;2023-04-05T06:52:27;99537.56;;;4.63;59.16
62548;BME280;48602;45.192;5.722;2023-04-05T06:54:52;99532.34;;;4.63;58.67
62548;BME280;48602;45.192;5.722;2023-04-05T06:57:17;99530.56;;;4.65;58.65
62548;BME280;48602;45.192;5.722;2023-04-05T06:59:43;99530.50;;;4.69;58.99
62548;BME280;48602;45.192;5.722;2023-04-05T07:02:08;99532.22;;;4.72;58.38
62548;BME280;48602;45.192;5.722;2023-04-05T07:04:34;99526.22;;;4.67;57.96
62548;BME280;48602;45.192;5.722;2023-04-05T07:07:01;99527.09;;;4.64;58.13
62548;BME280;48602;45.192;5.722;2023-04-05T07:09:26;99530.63;;;4.57;57.95
62548;BME280;48602;45.192;5.722;2023-04-05T07:11:55;99522.84;;;4.52;57.78
62548;BME280;48602;45.192;5.722;2023-04-05T07:14:21;99531.53;;;4.53;57.49
62548;BME280;48602;45.192;5.722;2023-04-05T07:16:47;99521.97;;;4.53;57.58
62548;BME280;48602;45.192;5.722;2023-04-05T07:19:12;99522.81;;;4.55;57.53
62548;BME280;48602;45.192;5.722;2023-04-05T07:21:37;99528.88;;;4.57;57.81
62548;BME280;48602;45.192;5.722;2023-04-05T07:24:03;99524.50;;;4.61;57.91
62548;BME280;48602;45.192;5.722;2023-04-05T07:26:30;99528.81;;;4.68;57.07
62548;BME280;48602;45.192;5.722;2023-04-05T07:28:59;99524.38;;;4.75;57.59
62548;BME280;48602;45.192;5.722;2023-04-05T07:31:24;99524.31;;;4.82;57.03
62548;BME280;48602;45.192;5.722;2023-04-05T07:33:50;99524.19;;;4.90;57.31
62548;BME280;48602;45.192;5.722;2023-04-05T07:36:15;99523.28;;;4.96;56.77
62548;BME280;48602;45.192;5.722;2023-04-05T07:38:40;99527.59;;;4.98;56.70
62548;BME280;48602;45.192;5.722;2023-04-05T07:41:06;99531.88;;;5.05;56.84
62548;BME280;48602;45.192;5.722;2023-04-05T07:43:31;99534.41;;;5.11;56.50
62548;BME280;48602;45.192;5.722;2023-04-05T07:46:01;99534.38;;;5.14;56.56
62548;BME280;48602;45.192;5.722;2023-04-05T07:48:27;99530.81;;;5.20;56.45
62548;BME280;48602;45.192;5.722;2023-04-05T07:50:52;99528.13;;;5.26;56.37
62548;BME280;48602;45.192;5.722;2023-04-05T07:53:18;99527.19;;;5.35;56.31
62548;BME280;48602;45.192;5.722;2023-04-05T07:55:44;99532.28;;;5.44;55.82
62548;BME280;48602;45.192;5.722;2023-04-05T07:58:10;99532.19;;;5.51;55.60
62548;BME280;48602;45.192;5.722;2023-04-05T08:00:36;99530.34;;;5.56;54.83
62548;BME280;48602;45.192;5.722;2023-04-05T08:03:02;99533.78;;;5.61;55.07
62548;BME280;48602;45.192;5.722;2023-04-05T08:05:28;99532.84;;;5.69;55.28
62548;BME280;48602;45.192;5.722;2023-04-05T08:07:54;99523.13;;;5.75;55.06
62548;BME280;48602;45.192;5.722;2023-04-05T08:10:22;99523.00;;;5.86;54.83
62548;BME280;48602;45.192;5.722;2023-04-05T08:12:47;99527.19;;;5.98;54.99
62548;BME280;48602;45.192;5.722;2023-04-05T08:15:12;99517.44;;;6.07;54.42
62548;BME280;48602;45.192;5.722;2023-04-05T08:17:38;99518.22;;;6.14;54.42
62548;BME280;48602;45.192;5.722;2023-04-05T08:20:04;99519.81;;;6.22;53.83
62548;BME280;48602;45.192;5.722;2023-04-05T08:22:29;99520.59;;;6.29;53.40
62548;BME280;48602;45.192;5.722;2023-04-05T08:24:55;99530.00;;;6.39;53.51
62548;BME280;48602;45.192;5.722;2023-04-05T08:27:20;99517.72;;;6.44;53.17
62548;BME280;48602;45.192;5.722;2023-04-05T08:29:45;99518.47;;;6.51;52.85
62548;BME280;48602;45.192;5.722;2023-04-05T08:32:11;99521.78;;;6.62;52.80
62548;BME280;48602;45.192;5.722;2023-04-05T08:34:36;99516.34;;;6.71;52.04
62548;BME280;48602;45.192;5.722;2023-04-05T08:37:02;99512.66;;;6.83;51.90
62548;BME280;48602;45.192;5.722;2023-04-05T08:39:27;99514.19;;;6.93;51.63
62548;BME280;48602;45.192;5.722;2023-04-05T08:42:10;99513.25;;;6.97;51.16
62548;BME280;48602;45.192;5.722;2023-04-05T08:44:40;99506.19;;;7.02;51.00
62548;BME280;48602;45.192;5.722;2023-04-05T08:47:07;99502.50;;;7.11;51.22
62548;BME280;48602;45.192;5.722;2023-04-05T08:49:34;99499.72;;;7.20;50.89
62548;BME280;48602;45.192;5.722;2023-04-05T08:52:01;99501.25;;;7.28;50.81
62548;BME280;48602;45.192;5.722;2023-04-05T08:54:27;99501.13;;;7.34;50.26
62548;BME280;48602;45.192;5.722;2023-04-05T08:56:52;99487.00;;;7.40;50.21
62548;BME280;48602;45.192;5.722;2023-04-05T08:59:19;99496.50;;;7.47;49.96
62548;BME280;48602;45.192;5.722;2023-04-05T09:01:46;99497.22;;;7.54;49.42
62548;BME280;48602;45.192;5.722;2023-04-05T09:04:22;99495.34;;;7.59;49.49
62548;BME280;48602;45.192;5.722;2023-04-05T09:06:49;99483.84;;;7.66;49.40
62548;BME280;48602;45.192;5.722;2023-04-05T09:09:15;99484.63;;;7.69;49.35
62548;BME280;48602;45.192;5.722;2023-04-05T09:11:42;99483.63;;;7.75;49.34
62548;BME280;48602;45.192;5.722;2023-04-05T09:14:08;99476.56;;;7.77;49.39
62548;BME280;48602;45.192;5.722;2023-04-05T09:16:39;99474.75;;;7.81;49.74
62548;BME280;48602;45.192;5.722;2023-04-05T09:19:05;99478.03;;;7.89;49.69
62548;BME280;48602;45.192;5.722;2023-04-05T09:24:33;99467.19;;;8.04;49.08
62548;BME280;48602;45.192;5.722;2023-04-05T09:27:14;99466.19;;;8.08;48.45
62548;BME280;48602;45.192;5.722;2023-04-05T09:29:42;99473.19;;;8.09;47.04
62548;BME280;48602;45.192;5.722;2023-04-05T09:32:10;99466.13;;;8.11;47.22
62548;BME280;48602;45.192;5.722;2023-04-05T09:34:36;99475.66;;;8.15;47.44
62548;BME280;48602;45.192;5.722;2023-04-05T09:37:10;99464.91;;;8.24;47.41
62548;BME280;48602;45.192;5.722;2023-04-05T09:39:37;99460.41;;;8.29;46.81
62548;BME280;48602;45.192;5.722;2023-04-05T09:42:05;99461.25;;;8.31;46.52
62548;BME280;48602;45.192;5.722;2023-04-05T09:47:26;99457.06;;;8.23;46.13
62548;BME280;48602;45.192;5.722;2023-04-05T09:49:56;99443.94;;;8.23;46.86
62548;BME280;48602;45.192;5.722;2023-04-05T09:52:26;99448.13;;;8.31;45.73
62548;BME280;48602;45.192;5.722;2023-04-05T09:54:54;99453.13;;;8.42;45.88
62548;BME280;48602;45.192;5.722;2023-04-05T09:57:24;99445.13;;;8.47;45.13
62548;BME280;48602;45.192;5.722;2023-04-05T09:59:56;99442.31;;;8.54;43.55
62548;BME280;48602;45.192;5.722;2023-04-05T10:02:22;99436.91;;;8.59;44.54
62548;BME280;48602;45.192;5.722;2023-04-05T10:04:48;99445.56;;;8.62;44.77
62548;BME280;48602;45.192;5.722;2023-04-05T10:07:18;99440.25;;;8.65;45.13
62548;BME280;48602;45.192;5.722;2023-04-05T10:09:45;99432.31;;;8.67;45.37
62548;BME280;48602;45.192;5.722;2023-04-05T10:12:20;99432.91;;;8.77;45.61
62548;BME280;48602;45.192;5.722;2023-04-05T10:14:48;99424.78;;;8.86;44.67
62548;BME280;48602;45.192;5.722;2023-04-05T10:17:38;99430.63;;;8.95;44.52
62548;BME280;48602;45.192;5.722;2023-04-05T10:20:17;99421.66;;;9.02;44.36
62548;BME280;48602;45.192;5.722;2023-04-05T10:28:04;99426.75;;;9.38;45.31
62548;BME280;48602;45.192;5.722;2023-04-05T10:30:35;99419.28;;;9.52;44.79
62548;BME280;48602;45.192;5.722;2023-04-05T10:38:27;99408.69;;;9.82;45.36
62548;BME280;48602;45.192;5.722;2023-04-05T10:41:07;99415.22;;;9.96;45.64
62548;BME280;48602;45.192;5.722;2023-04-05T10:43:34;99403.41;;;10.08;45.16
62548;BME280;48602;45.192;5.722;2023-04-05T10:46:03;99399.63;;;10.17;44.66
62548;BME280;48602;45.192;5.722;2023-04-05T10:48:47;99400.22;;;10.25;44.45
62548;BME280;48602;45.192;5.722;2023-04-05T10:51:19;99388.47;;;10.35;44.19
62548;BME280;48602;45.192;5.722;2023-04-05T10:53:48;99385.47;;;10.45;44.28
62548;BME280;48602;45.192;5.722;2023-04-05T10:56:15;99378.09;;;10.55;42.00
62548;BME280;48602;45.192;5.722;2023-04-05T10:58:42;99380.66;;;10.57;42.13
62548;BME280;48602;45.192;5.722;2023-04-05T11:01:08;99377.28;;;10.53;40.44
62548;BME280;48602;45.192;5.722;2023-04-05T11:06:32;99367.81;;;10.47;39.79
62548;BME280;48602;45.192;5.722;2023-04-05T11:11:38;99376.38;;;10.54;39.84
62548;BME280;48602;45.192;5.722;2023-04-05T11:14:16;99364.97;;;10.54;39.45
62548;BME280;48602;45.192;5.722;2023-04-05T11:16:45;99354.28;;;10.57;38.18
62548;BME280;48602;45.192;5.722;2023-04-05T11:19:11;99368.06;;;10.65;37.64
62548;BME280;48602;45.192;5.722;2023-04-05T11:21:37;99341.75;;;10.63;39.22
62548;BME280;48602;45.192;5.722;2023-04-05T11:26:52;99361.06;;;10.64;36.86
62548;BME280;48602;45.192;5.722;2023-04-05T11:29:18;99393.56;;;10.64;36.38
62548;BME280;48602;45.192;5.722;2023-04-05T11:32:05;99337.19;;;10.68;36.69
62548;BME280;48602;45.192;5.722;2023-04-05T11:34:35;99340.50;;;10.73;37.84
62548;BME280;48602;45.192;5.722;2023-04-05T11:37:01;99344.06;;;10.72;37.67
62548;BME280;48602;45.192;5.722;2023-04-05T11:39:27;99345.75;;;10.73;36.91
62548;BME280;48602;45.192;5.722;2023-04-05T11:42:02;99340.28;;;10.79;37.22
62548;BME280;48602;45.192;5.722;2023-04-05T11:44:48;99340.09;;;10.84;36.76
62548;BME280;48602;45.192;5.722;2023-04-05T11:47:16;99314.44;;;10.89;37.00
62548;BME280;48602;45.192;5.722;2023-04-05T11:49:42;99339.75;;;10.93;37.09
62548;BME280;48602;45.192;5.722;2023-04-05T11:52:14;99361.50;;;11.00;36.84
62548;BME280;48602;45.192;5.722;2023-04-05T11:54:40;99329.78;;;11.01;36.75
62548;BME280;48602;45.192;5.722;2023-04-05T11:57:21;99333.16;;;11.05;36.09
62548;BME280;48602;45.192;5.722;2023-04-05T11:59:49;99342.16;;;10.99;36.92
62548;BME280;48602;45.192;5.722;2023-04-05T12:02:16;99323.59;;;11.02;36.25
62548;BME280;48602;45.192;5.722;2023-04-05T12:04:42;99329.47;;;11.09;36.29
62548;BME280;48602;45.192;5.722;2023-04-05T12:09:58;99359.88;;;11.19;36.16
62548;BME280;48602;45.192;5.722;2023-04-05T12:12:24;99322.94;;;11.19;36.02
62548;BME280;48602;45.192;5.722;2023-04-05T12:14:49;99324.88;;;11.14;36.47
62548;BME280;48602;45.192;5.722;2023-04-05T12:17:14;99342.16;;;11.23;36.15
62548;BME280;48602;45.192;5.722;2023-04-05T12:19:40;99329.78;;;11.23;35.78
62548;BME280;48602;45.192;5.722;2023-04-05T12:22:06;99359.50;;;11.28;35.83
62548;BME280;48602;45.192;5.722;2023-04-05T12:24:32;99315.44;;;11.30;36.14
62548;BME280;48602;45.192;5.722;2023-04-05T12:26:57;99353.06;;;11.35;36.54
62548;BME280;48602;45.192;5.722;2023-04-05T12:29:24;99347.53;;;11.41;36.39
62548;BME280;48602;45.192;5.722;2023-04-05T12:31:49;99340.47;;;11.42;36.54
62548;BME280;48602;45.192;5.722;2023-04-05T12:34:22;99335.13;;;11.43;36.63
62548;BME280;48602;45.192;5.722;2023-04-05T12:36:48;99327.94;;;11.47;36.50
62548;BME280;48602;45.192;5.722;2023-04-05T12:39:15;99317.22;;;11.51;37.01
62548;BME280;48602;45.192;5.722;2023-04-05T12:41:40;99286.97;;;11.59;37.30
62548;BME280;48602;45.192;5.722;2023-04-05T12:44:15;99325.59;;;11.61;36.54
62548;BME280;48602;45.192;5.722;2023-04-05T12:46:45;99331.63;;;11.65;37.22
62548;BME280;48602;45.192;5.722;2023-04-05T12:49:15;99316.66;;;11.65;37.29
62548;BME280;48602;45.192;5.722;2023-04-05T12:51:42;99303.25;;;11.70;36.69
62548;BME280;48602;45.192;5.722;2023-04-05T12:54:11;99324.09;;;11.77;36.81
62548;BME280;48602;45.192;5.722;2023-04-05T12:56:37;99290.59;;;11.78;37.23
62548;BME280;48602;45.192;5.722;2023-04-05T12:59:04;99316.72;;;11.85;37.26
62548;BME280;48602;45.192;5.722;2023-04-05T13:01:30;99316.44;;;11.92;36.33
62548;BME280;48602;45.192;5.722;2023-04-05T13:03:58;99299.41;;;11.99;36.50
62548;BME280;48602;45.192;5.722;2023-04-05T13:06:25;99337.94;;;12.04;36.59
62548;BME280;48602;45.192;5.722;2023-04-05T13:08:51;99302.78;;;12.02;37.63
62548;BME280;48602;45.192;5.722;2023-04-05T13:11:16;99294.72;;;12.05;37.38
62548;BME280;48602;45.192;5.722;2023-04-05T13:13:42;99324.56;;;12.07;37.08
62548;BME280;48602;45.192;5.722;2023-04-05T13:16:07;99300.16;;;12.02;37.51
62548;BME280;48602;45.192;5.722;2023-04-05T13:18:33;99296.72;;;12.00;37.56
62548;BME280;48602;45.192;5.722;2023-04-05T13:20:58;99306.41;;;12.00;37.00
62548;BME280;48602;45.192;5.722;2023-04-05T13:23:23;99310.84;;;11.99;37.45
62548;BME280;48602;45.192;5.722;2023-04-05T13:25:49;99331.06;;;12.00;37.35
62548;BME280;48602;45.192;5.722;2023-04-05T13:28:14;99277.16;;;12.04;37.65
62548;BME280;48602;45.192;5.722;2023-04-05T13:30:40;99287.38;;;12.12;37.46
62548;BME280;48602;45.192;5.722;2023-04-05T13:33:05;99305.56;;;12.19;37.06
62548;BME280;48602;45.192;5.722;2023-04-05T13:35:31;99283.31;;;12.23;36.94
62548;BME280;48602;45.192;5.722;2023-04-05T13:37:57;99297.28;;;12.27;36.74
62548;BME280;48602;45.192;5.722;2023-04-05T13:40:22;99262.97;;;12.26;36.09
62548;BME280;48602;45.192;5.722;2023-04-05T13:42:48;99277.13;;;12.24;36.35
62548;BME280;48602;45.192;5.722;2023-04-05T13:45:13;99292.00;;;12.27;36.06
62548;BME280;48602;45.192;5.722;2023-04-05T13:47:39;99285.84;;;12.27;37.01
62548;BME280;48602;45.192;5.722;2023-04-05T13:50:05;99268.38;;;12.43;36.56
62548;BME280;48602;45.192;5.722;2023-04-05T13:52:31;99276.59;;;12.74;35.99
62548;BME280;48602;45.192;5.722;2023-04-05T13:54:57;99266.53;;;13.01;36.07